sensor_id;sensor_type;location;lat;lon;timestamp;P1;durP1;ratioP1;P2;durP2;ratioP2
62957;SDS011;49056;48.352;10.926;2023-06-22T00:02:21;2.53;;;1.15;;
62957;SDS011;49056;48.352;10.926;2023-06-22T00:07:42;2.03;;;1.23;;
62957;SDS011;49056;48.352;10.926;2023-06-22T00:13:02;1.75;;;0.93;;
62957;SDS011;49056;48.352;10.926;2023-06-22T00:18:22;1.90;;;1.08;;
62957;SDS011;49056;48.352;10.926;2023-06-22T00:23:48;1.75;;;1.00;;
62957;SDS011;49056;48.352;10.926;2023-06-22T00:29:09;3.75;;;1.05;;
62957;SDS011;49056;48.352;10.926;2023-06-22T00:34:29;1.77;;;1.20;;
62957;SDS011;49056;48.352;10.926;2023-06-22T00:39:49;3.58;;;1.00;;
62957;SDS011;49056;48.352;10.926;2023-06-22T00:45:10;2.08;;;1.10;;
62957;SDS011;49056;48.352;10.926;2023-06-22T00:50:30;2.30;;;1.20;;
62957;SDS011;49056;48.352;10.926;2023-06-22T00:55:55;2.75;;;0.93;;
62957;SDS011;49056;48.352;10.926;2023-06-22T01:01:15;2.37;;;1.15;;
62957;SDS011;49056;48.352;10.926;2023-06-22T01:06:38;2.35;;;1.10;;
62957;SDS011;49056;48.352;10.926;2023-06-22T01:12:01;1.67;;;1.05;;
62957;SDS011;49056;48.352;10.926;2023-06-22T01:17:21;2.22;;;1.17;;
62957;SDS011;49056;48.352;10.926;2023-06-22T01:33:59;1.60;;;0.85;;
62957;SDS011;49056;48.352;10.926;2023-06-22T01:39:20;1.83;;;1.05;;
62957;SDS011;49056;48.352;10.926;2023-06-22T01:44:41;2.17;;;0.90;;
62957;SDS011;49056;48.352;10.926;2023-06-22T01:50:01;2.00;;;1.00;;
62957;SDS011;49056;48.352;10.926;2023-06-22T01:55:21;1.30;;;0.83;;
62957;SDS011;49056;48.352;10.926;2023-06-22T02:00:44;1.92;;;1.10;;
62957;SDS011;49056;48.352;10.926;2023-06-22T02:06:06;1.58;;;0.75;;
62957;SDS011;49056;48.352;10.926;2023-06-22T02:11:28;1.83;;;1.10;;
62957;SDS011;49056;48.352;10.926;2023-06-22T02:16:50;1.95;;;0.88;;
62957;SDS011;49056;48.352;10.926;2023-06-22T02:22:10;2.50;;;1.10;;
62957;SDS011;49056;48.352;10.926;2023-06-22T02:27:32;1.95;;;1.12;;
62957;SDS011;49056;48.352;10.926;2023-06-22T02:32:52;1.73;;;1.23;;
62957;SDS011;49056;48.352;10.926;2023-06-22T02:38:18;1.73;;;0.95;;
62957;SDS011;49056;48.352;10.926;2023-06-22T02:43:39;1.08;;;0.70;;
62957;SDS011;49056;48.352;10.926;2023-06-22T02:49:00;1.02;;;0.68;;
62957;SDS011;49056;48.352;10.926;2023-06-22T02:54:20;2.20;;;1.13;;
62957;SDS011;49056;48.352;10.926;2023-06-22T02:59:40;1.42;;;0.90;;
62957;SDS011;49056;48.352;10.926;2023-06-22T03:05:02;2.08;;;1.25;;
62957;SDS011;49056;48.352;10.926;2023-06-22T03:10:22;1.63;;;0.90;;
62957;SDS011;49056;48.352;10.926;2023-06-22T03:15:42;1.58;;;1.05;;
62957;SDS011;49056;48.352;10.926;2023-06-22T03:21:02;2.37;;;1.30;;
62957;SDS011;49056;48.352;10.926;2023-06-22T03:26:23;2.05;;;1.05;;
62957;SDS011;49056;48.352;10.926;2023-06-22T03:31:46;2.17;;;1.25;;
62957;SDS011;49056;48.352;10.926;2023-06-22T03:37:06;2.87;;;1.23;;
62957;SDS011;49056;48.352;10.926;2023-06-22T03:42:27;2.17;;;1.10;;
62957;SDS011;49056;48.352;10.926;2023-06-22T03:47:48;3.12;;;1.33;;
62957;SDS011;49056;48.352;10.926;2023-06-22T03:53:08;1.67;;;0.80;;
62957;SDS011;49056;48.352;10.926;2023-06-22T03:58:28;1.70;;;0.93;;
62957;SDS011;49056;48.352;10.926;2023-06-22T04:03:52;3.58;;;1.23;;
62957;SDS011;49056;48.352;10.926;2023-06-22T04:09:13;1.53;;;0.83;;
62957;SDS011;49056;48.352;10.926;2023-06-22T04:14:33;2.15;;;0.90;;
62957;SDS011;49056;48.352;10.926;2023-06-22T04:19:53;1.98;;;1.10;;
62957;SDS011;49056;48.352;10.926;2023-06-22T04:25:14;2.08;;;0.77;;
62957;SDS011;49056;48.352;10.926;2023-06-22T04:30:34;2.35;;;1.10;;
62957;SDS011;49056;48.352;10.926;2023-06-22T04:35:54;1.55;;;0.77;;
62957;SDS011;49056;48.352;10.926;2023-06-22T04:41:17;2.12;;;0.90;;
62957;SDS011;49056;48.352;10.926;2023-06-22T04:46:43;2.17;;;1.02;;
62957;SDS011;49056;48.352;10.926;2023-06-22T04:52:04;3.25;;;1.12;;
62957;SDS011;49056;48.352;10.926;2023-06-22T04:57:25;2.78;;;0.82;;
62957;SDS011;49056;48.352;10.926;2023-06-22T05:02:52;2.08;;;1.27;;
62957;SDS011;49056;48.352;10.926;2023-06-22T05:08:12;2.08;;;1.25;;
62957;SDS011;49056;48.352;10.926;2023-06-22T05:13:33;2.15;;;1.12;;
62957;SDS011;49056;48.352;10.926;2023-06-22T05:18:54;2.28;;;1.23;;
62957;SDS011;49056;48.352;10.926;2023-06-22T05:24:14;2.50;;;1.30;;
62957;SDS011;49056;48.352;10.926;2023-06-22T05:29:38;2.00;;;1.12;;
62957;SDS011;49056;48.352;10.926;2023-06-22T05:34:59;3.00;;;1.40;;
62957;SDS011;49056;48.352;10.926;2023-06-22T05:40:19;1.67;;;0.90;;
62957;SDS011;49056;48.352;10.926;2023-06-22T05:45:40;2.90;;;1.13;;
62957;SDS011;49056;48.352;10.926;2023-06-22T05:51:00;2.17;;;1.25;;
62957;SDS011;49056;48.352;10.926;2023-06-22T05:56:20;2.03;;;1.20;;
62957;SDS011;49056;48.352;10.926;2023-06-22T06:01:41;1.80;;;1.03;;
62957;SDS011;49056;48.352;10.926;2023-06-22T06:07:01;2.75;;;1.50;;
62957;SDS011;49056;48.352;10.926;2023-06-22T06:12:21;2.63;;;1.43;;
62957;SDS011;49056;48.352;10.926;2023-06-22T06:17:48;2.35;;;1.05;;
62957;SDS011;49056;48.352;10.926;2023-06-22T06:23:08;2.45;;;1.30;;
62957;SDS011;49056;48.352;10.926;2023-06-22T06:28:29;2.37;;;1.17;;
62957;SDS011;49056;48.352;10.926;2023-06-22T06:33:49;3.37;;;0.90;;
62957;SDS011;49056;48.352;10.926;2023-06-22T06:39:09;2.50;;;1.23;;
62957;SDS011;49056;48.352;10.926;2023-06-22T06:44:30;2.37;;;1.37;;
62957;SDS011;49056;48.352;10.926;2023-06-22T06:49:50;2.15;;;1.05;;
62957;SDS011;49056;48.352;10.926;2023-06-22T06:55:10;2.28;;;1.30;;
62957;SDS011;49056;48.352;10.926;2023-06-22T07:00:32;1.85;;;0.95;;
62957;SDS011;49056;48.352;10.926;2023-06-22T07:05:52;2.37;;;1.20;;
62957;SDS011;49056;48.352;10.926;2023-06-22T07:11:12;2.25;;;1.58;;
62957;SDS011;49056;48.352;10.926;2023-06-22T07:16:32;2.30;;;1.25;;
62957;SDS011;49056;48.352;10.926;2023-06-22T07:21:53;2.30;;;1.27;;
62957;SDS011;49056;48.352;10.926;2023-06-22T07:27:13;1.87;;;0.90;;
62957;SDS011;49056;48.352;10.926;2023-06-22T07:32:36;2.83;;;1.45;;
62957;SDS011;49056;48.352;10.926;2023-06-22T07:37:57;3.17;;;1.33;;
62957;SDS011;49056;48.352;10.926;2023-06-22T07:43:17;2.90;;;1.48;;
62957;SDS011;49056;48.352;10.926;2023-06-22T07:48:37;1.70;;;1.03;;
62957;SDS011;49056;48.352;10.926;2023-06-22T07:53:58;4.50;;;1.65;;
62957;SDS011;49056;48.352;10.926;2023-06-22T07:59:18;3.80;;;1.93;;
62957;SDS011;49056;48.352;10.926;2023-06-22T08:04:39;2.97;;;1.85;;
62957;SDS011;49056;48.352;10.926;2023-06-22T08:09:59;3.10;;;1.50;;
62957;SDS011;49056;48.352;10.926;2023-06-22T08:15:19;2.00;;;1.30;;
62957;SDS011;49056;48.352;10.926;2023-06-22T08:20:40;2.63;;;1.43;;
62957;SDS011;49056;48.352;10.926;2023-06-22T08:26:00;2.77;;;1.60;;
62957;SDS011;49056;48.352;10.926;2023-06-22T08:31:20;4.93;;;1.55;;
62957;SDS011;49056;48.352;10.926;2023-06-22T08:36:41;3.40;;;1.60;;
62957;SDS011;49056;48.352;10.926;2023-06-22T08:42:05;4.40;;;2.03;;
62957;SDS011;49056;48.352;10.926;2023-06-22T08:47:27;4.95;;;1.40;;
62957;SDS011;49056;48.352;10.926;2023-06-22T08:52:47;3.83;;;1.50;;
62957;SDS011;49056;48.352;10.926;2023-06-22T08:58:08;3.40;;;1.37;;
62957;SDS011;49056;48.352;10.926;2023-06-22T09:03:28;2.83;;;1.60;;
62957;SDS011;49056;48.352;10.926;2023-06-22T09:08:48;4.87;;;1.60;;
62957;SDS011;49056;48.352;10.926;2023-06-22T09:14:09;2.25;;;1.55;;
62957;SDS011;49056;48.352;10.926;2023-06-22T09:19:29;2.47;;;1.25;;
62957;SDS011;49056;48.352;10.926;2023-06-22T09:24:50;3.63;;;1.70;;
62957;SDS011;49056;48.352;10.926;2023-06-22T09:30:10;3.40;;;1.50;;
62957;SDS011;49056;48.352;10.926;2023-06-22T09:35:31;4.03;;;1.87;;
62957;SDS011;49056;48.352;10.926;2023-06-22T09:40:51;3.78;;;1.70;;
62957;SDS011;49056;48.352;10.926;2023-06-22T09:46:11;2.72;;;1.52;;
62957;SDS011;49056;48.352;10.926;2023-06-22T09:51:32;3.30;;;1.80;;
62957;SDS011;49056;48.352;10.926;2023-06-22T09:56:52;2.58;;;1.58;;
62957;SDS011;49056;48.352;10.926;2023-06-22T10:02:12;3.75;;;1.92;;
62957;SDS011;49056;48.352;10.926;2023-06-22T10:07:33;3.25;;;1.70;;
62957;SDS011;49056;48.352;10.926;2023-06-22T10:12:57;2.87;;;1.58;;
62957;SDS011;49056;48.352;10.926;2023-06-22T10:18:17;3.92;;;1.73;;
62957;SDS011;49056;48.352;10.926;2023-06-22T10:23:38;6.43;;;2.10;;
62957;SDS011;49056;48.352;10.926;2023-06-22T10:28:58;2.80;;;1.62;;
62957;SDS011;49056;48.352;10.926;2023-06-22T10:34:18;3.03;;;1.67;;
62957;SDS011;49056;48.352;10.926;2023-06-22T10:39:39;2.73;;;1.80;;
62957;SDS011;49056;48.352;10.926;2023-06-22T10:44:59;3.42;;;1.77;;
62957;SDS011;49056;48.352;10.926;2023-06-22T10:50:19;4.40;;;1.48;;
62957;SDS011;49056;48.352;10.926;2023-06-22T10:55:40;4.60;;;1.87;;
62957;SDS011;49056;48.352;10.926;2023-06-22T11:01:01;3.55;;;1.77;;
62957;SDS011;49056;48.352;10.926;2023-06-22T11:06:23;3.42;;;1.90;;
62957;SDS011;49056;48.352;10.926;2023-06-22T11:11:43;5.00;;;1.77;;
62957;SDS011;49056;48.352;10.926;2023-06-22T11:17:03;3.35;;;2.35;;
62957;SDS011;49056;48.352;10.926;2023-06-22T11:22:24;3.53;;;1.67;;
62957;SDS011;49056;48.352;10.926;2023-06-22T11:27:44;4.87;;;1.62;;
62957;SDS011;49056;48.352;10.926;2023-06-22T11:33:04;5.10;;;2.20;;
62957;SDS011;49056;48.352;10.926;2023-06-22T11:38:25;3.95;;;2.25;;
62957;SDS011;49056;48.352;10.926;2023-06-22T11:43:45;3.30;;;1.60;;
62957;SDS011;49056;48.352;10.926;2023-06-22T11:49:05;5.37;;;2.72;;
62957;SDS011;49056;48.352;10.926;2023-06-22T11:54:26;3.65;;;1.85;;
62957;SDS011;49056;48.352;10.926;2023-06-22T11:59:46;6.78;;;2.00;;
62957;SDS011;49056;48.352;10.926;2023-06-22T12:05:07;5.50;;;2.30;;
62957;SDS011;49056;48.352;10.926;2023-06-22T12:10:28;4.43;;;2.15;;
62957;SDS011;49056;48.352;10.926;2023-06-22T12:15:51;5.15;;;2.37;;
62957;SDS011;49056;48.352;10.926;2023-06-22T12:21:12;4.62;;;2.35;;
62957;SDS011;49056;48.352;10.926;2023-06-22T12:26:32;4.45;;;2.12;;
62957;SDS011;49056;48.352;10.926;2023-06-22T12:31:53;5.80;;;2.33;;
62957;SDS011;49056;48.352;10.926;2023-06-22T12:37:13;3.47;;;1.90;;
62957;SDS011;49056;48.352;10.926;2023-06-22T12:42:33;3.65;;;2.15;;
62957;SDS011;49056;48.352;10.926;2023-06-22T12:47:54;5.22;;;2.50;;
62957;SDS011;49056;48.352;10.926;2023-06-22T12:53:14;5.72;;;2.10;;
62957;SDS011;49056;48.352;10.926;2023-06-22T12:58:35;4.00;;;2.00;;
62957;SDS011;49056;48.352;10.926;2023-06-22T13:03:55;3.47;;;2.12;;
62957;SDS011;49056;48.352;10.926;2023-06-22T13:09:16;4.73;;;2.00;;
62957;SDS011;49056;48.352;10.926;2023-06-22T13:14:37;5.53;;;2.03;;
62957;SDS011;49056;48.352;10.926;2023-06-22T13:19:57;4.53;;;2.33;;
62957;SDS011;49056;48.352;10.926;2023-06-22T13:25:18;4.40;;;2.05;;
62957;SDS011;49056;48.352;10.926;2023-06-22T13:30:40;4.93;;;1.67;;
62957;SDS011;49056;48.352;10.926;2023-06-22T13:36:00;4.65;;;2.58;;
62957;SDS011;49056;48.352;10.926;2023-06-22T13:41:23;3.87;;;1.85;;
62957;SDS011;49056;48.352;10.926;2023-06-22T13:46:43;3.60;;;1.65;;
62957;SDS011;49056;48.352;10.926;2023-06-22T13:52:04;8.00;;;2.77;;
62957;SDS011;49056;48.352;10.926;2023-06-22T13:57:26;4.35;;;1.87;;
62957;SDS011;49056;48.352;10.926;2023-06-22T14:02:47;4.00;;;2.07;;
62957;SDS011;49056;48.352;10.926;2023-06-22T14:08:07;2.72;;;1.65;;
62957;SDS011;49056;48.352;10.926;2023-06-22T14:13:28;4.03;;;2.03;;
62957;SDS011;49056;48.352;10.926;2023-06-22T14:18:48;4.45;;;2.10;;
62957;SDS011;49056;48.352;10.926;2023-06-22T14:24:08;4.97;;;1.98;;
62957;SDS011;49056;48.352;10.926;2023-06-22T14:29:29;4.22;;;1.70;;
62957;SDS011;49056;48.352;10.926;2023-06-22T14:34:49;3.80;;;2.12;;
62957;SDS011;49056;48.352;10.926;2023-06-22T14:40:10;5.60;;;2.30;;
62957;SDS011;49056;48.352;10.926;2023-06-22T14:45:30;3.55;;;1.80;;
62957;SDS011;49056;48.352;10.926;2023-06-22T14:50:51;4.32;;;1.95;;
62957;SDS011;49056;48.352;10.926;2023-06-22T14:56:11;4.43;;;1.77;;
62957;SDS011;49056;48.352;10.926;2023-06-22T15:01:33;5.68;;;2.28;;
62957;SDS011;49056;48.352;10.926;2023-06-22T15:06:53;6.07;;;2.10;;
62957;SDS011;49056;48.352;10.926;2023-06-22T15:12:13;4.07;;;1.77;;
62957;SDS011;49056;48.352;10.926;2023-06-22T15:17:34;3.50;;;1.90;;
62957;SDS011;49056;48.352;10.926;2023-06-22T15:22:56;5.00;;;2.05;;
62957;SDS011;49056;48.352;10.926;2023-06-22T15:28:16;3.62;;;1.90;;
62957;SDS011;49056;48.352;10.926;2023-06-22T15:33:37;3.50;;;1.80;;
62957;SDS011;49056;48.352;10.926;2023-06-22T15:38:57;3.33;;;1.60;;
62957;SDS011;49056;48.352;10.926;2023-06-22T15:44:17;4.35;;;1.70;;
62957;SDS011;49056;48.352;10.926;2023-06-22T15:49:37;1.87;;;1.33;;
62957;SDS011;49056;48.352;10.926;2023-06-22T15:54:58;4.80;;;2.00;;
62957;SDS011;49056;48.352;10.926;2023-06-22T16:00:20;2.45;;;1.48;;
62957;SDS011;49056;48.352;10.926;2023-06-22T16:05:41;3.17;;;1.65;;
62957;SDS011;49056;48.352;10.926;2023-06-22T16:11:02;4.95;;;2.25;;
62957;SDS011;49056;48.352;10.926;2023-06-22T16:16:22;2.55;;;1.50;;
62957;SDS011;49056;48.352;10.926;2023-06-22T16:21:42;2.97;;;1.90;;
62957;SDS011;49056;48.352;10.926;2023-06-22T16:27:03;5.53;;;2.12;;
62957;SDS011;49056;48.352;10.926;2023-06-22T16:32:23;3.10;;;2.03;;
62957;SDS011;49056;48.352;10.926;2023-06-22T16:37:43;3.77;;;2.00;;
62957;SDS011;49056;48.352;10.926;2023-06-22T16:43:04;2.30;;;1.70;;
62957;SDS011;49056;48.352;10.926;2023-06-22T16:48:24;3.07;;;1.87;;
62957;SDS011;49056;48.352;10.926;2023-06-22T16:53:44;3.67;;;1.58;;
62957;SDS011;49056;48.352;10.926;2023-06-22T16:59:06;3.22;;;1.90;;
62957;SDS011;49056;48.352;10.926;2023-06-22T17:04:26;3.22;;;1.70;;
62957;SDS011;49056;48.352;10.926;2023-06-22T17:09:47;3.78;;;1.65;;
62957;SDS011;49056;48.352;10.926;2023-06-22T17:15:10;3.42;;;1.85;;
62957;SDS011;49056;48.352;10.926;2023-06-22T17:20:31;6.00;;;1.98;;
62957;SDS011;49056;48.352;10.926;2023-06-22T17:25:52;2.58;;;1.60;;
62957;SDS011;49056;48.352;10.926;2023-06-22T17:31:13;3.97;;;2.25;;
62957;SDS011;49056;48.352;10.926;2023-06-22T17:36:39;3.08;;;1.77;;
62957;SDS011;49056;48.352;10.926;2023-06-22T17:41:59;3.67;;;2.20;;
62957;SDS011;49056;48.352;10.926;2023-06-22T17:47:25;4.77;;;2.07;;
62957;SDS011;49056;48.352;10.926;2023-06-22T17:52:49;3.95;;;2.00;;
62957;SDS011;49056;48.352;10.926;2023-06-22T17:58:10;3.57;;;2.00;;
62957;SDS011;49056;48.352;10.926;2023-06-22T18:03:30;2.72;;;1.50;;
62957;SDS011;49056;48.352;10.926;2023-06-22T18:08:51;3.13;;;2.00;;
62957;SDS011;49056;48.352;10.926;2023-06-22T18:14:19;2.60;;;1.65;;
62957;SDS011;49056;48.352;10.926;2023-06-22T18:19:39;3.22;;;1.80;;
62957;SDS011;49056;48.352;10.926;2023-06-22T18:25:03;3.80;;;2.03;;
62957;SDS011;49056;48.352;10.926;2023-06-22T18:30:24;2.62;;;1.92;;
62957;SDS011;49056;48.352;10.926;2023-06-22T18:35:44;4.60;;;2.30;;
62957;SDS011;49056;48.352;10.926;2023-06-22T18:41:04;5.20;;;2.40;;
62957;SDS011;49056;48.352;10.926;2023-06-22T18:46:35;5.78;;;2.03;;
62957;SDS011;49056;48.352;10.926;2023-06-22T18:51:56;2.80;;;1.60;;
62957;SDS011;49056;48.352;10.926;2023-06-22T18:57:23;4.25;;;2.12;;
62957;SDS011;49056;48.352;10.926;2023-06-22T19:08:10;3.87;;;1.85;;
62957;SDS011;49056;48.352;10.926;2023-06-22T19:13:33;3.62;;;2.25;;
62957;SDS011;49056;48.352;10.926;2023-06-22T19:18:53;3.83;;;2.08;;
62957;SDS011;49056;48.352;10.926;2023-06-22T19:24:28;2.08;;;1.37;;
62957;SDS011;49056;48.352;10.926;2023-06-22T19:29:52;4.12;;;1.87;;
62957;SDS011;49056;48.352;10.926;2023-06-22T19:35:13;3.78;;;1.67;;
62957;SDS011;49056;48.352;10.926;2023-06-22T19:40:33;3.62;;;1.60;;
62957;SDS011;49056;48.352;10.926;2023-06-22T19:45:53;3.00;;;1.77;;
62957;SDS011;49056;48.352;10.926;2023-06-22T19:51:14;2.62;;;1.75;;
62957;SDS011;49056;48.352;10.926;2023-06-22T19:56:37;3.70;;;1.60;;
62957;SDS011;49056;48.352;10.926;2023-06-22T20:01:59;2.45;;;1.40;;
62957;SDS011;49056;48.352;10.926;2023-06-22T20:07:19;2.60;;;1.30;;
62957;SDS011;49056;48.352;10.926;2023-06-22T20:12:40;2.67;;;1.40;;
62957;SDS011;49056;48.352;10.926;2023-06-22T20:18:02;3.72;;;1.52;;
62957;SDS011;49056;48.352;10.926;2023-06-22T20:23:22;2.83;;;1.60;;
62957;SDS011;49056;48.352;10.926;2023-06-22T20:28:43;1.90;;;1.20;;
62957;SDS011;49056;48.352;10.926;2023-06-22T20:34:03;2.60;;;1.40;;
62957;SDS011;49056;48.352;10.926;2023-06-22T20:39:24;3.80;;;1.77;;
62957;SDS011;49056;48.352;10.926;2023-06-22T20:44:44;3.28;;;1.50;;
62957;SDS011;49056;48.352;10.926;2023-06-22T20:50:09;3.50;;;1.50;;
62957;SDS011;49056;48.352;10.926;2023-06-22T20:55:30;4.10;;;1.55;;
62957;SDS011;49056;48.352;10.926;2023-06-22T21:00:51;2.33;;;1.42;;
62957;SDS011;49056;48.352;10.926;2023-06-22T21:06:11;1.62;;;0.95;;
62957;SDS011;49056;48.352;10.926;2023-06-22T21:11:31;2.42;;;1.50;;
62957;SDS011;49056;48.352;10.926;2023-06-22T21:16:52;2.95;;;1.40;;
62957;SDS011;49056;48.352;10.926;2023-06-22T21:22:13;2.03;;;1.23;;
62957;SDS011;49056;48.352;10.926;2023-06-22T21:27:34;2.63;;;1.30;;
62957;SDS011;49056;48.352;10.926;2023-06-22T21:32:55;2.45;;;1.30;;
62957;SDS011;49056;48.352;10.926;2023-06-22T21:38:15;3.62;;;1.05;;
62957;SDS011;49056;48.352;10.926;2023-06-22T21:43:35;3.13;;;1.50;;
62957;SDS011;49056;48.352;10.926;2023-06-22T21:48:56;2.20;;;0.93;;
62957;SDS011;49056;48.352;10.926;2023-06-22T21:54:16;1.62;;;1.00;;
62957;SDS011;49056;48.352;10.926;2023-06-22T21:59:37;3.37;;;1.10;;
62957;SDS011;49056;48.352;10.926;2023-06-22T22:04:57;3.20;;;1.10;;
62957;SDS011;49056;48.352;10.926;2023-06-22T22:10:17;3.77;;;1.27;;
62957;SDS011;49056;48.352;10.926;2023-06-22T22:15:39;2.70;;;1.40;;
62957;SDS011;49056;48.352;10.926;2023-06-22T22:20:59;2.72;;;1.10;;
62957;SDS011;49056;48.352;10.926;2023-06-22T22:26:19;2.77;;;1.07;;
62957;SDS011;49056;48.352;10.926;2023-06-22T22:31:40;2.12;;;1.00;;
62957;SDS011;49056;48.352;10.926;2023-06-22T22:37:00;2.67;;;1.20;;
62957;SDS011;49056;48.352;10.926;2023-06-22T22:42:21;1.90;;;1.03;;
62957;SDS011;49056;48.352;10.926;2023-06-22T22:47:41;1.43;;;1.07;;
62957;SDS011;49056;48.352;10.926;2023-06-22T22:53:01;2.13;;;1.00;;
62957;SDS011;49056;48.352;10.926;2023-06-22T22:58:24;2.30;;;1.08;;
62957;SDS011;49056;48.352;10.926;2023-06-22T23:03:45;3.10;;;1.25;;
62957;SDS011;49056;48.352;10.926;2023-06-22T23:09:05;2.58;;;1.30;;
62957;SDS011;49056;48.352;10.926;2023-06-22T23:14:25;3.00;;;1.00;;
62957;SDS011;49056;48.352;10.926;2023-06-22T23:19:45;2.40;;;1.10;;
62957;SDS011;49056;48.352;10.926;2023-06-22T23:25:06;1.70;;;0.80;;
62957;SDS011;49056;48.352;10.926;2023-06-22T23:30:29;1.02;;;0.70;;
62957;SDS011;49056;48.352;10.926;2023-06-22T23:35:51;1.70;;;0.90;;
62957;SDS011;49056;48.352;10.926;2023-06-22T23:41:11;2.40;;;0.87;;
62957;SDS011;49056;48.352;10.926;2023-06-22T23:46:32;2.25;;;1.10;;
62957;SDS011;49056;48.352;10.926;2023-06-22T23:51:52;1.65;;;0.70;;
62957;SDS011;49056;48.352;10.926;2023-06-22T23:57:12;2.33;;;0.87;;
